Time;durP1;ratioP1;P1;durP2;ratioP2;P2;SDS_P1;SDS_P2;PMS_P1;PMS_P2;Temp;Humidity;BMP_temperature;BMP_pressure;BME280_temperature;BME280_humidity;BME280_pressure;Samples;Min_cycle;Max_cycle;Signal;HPM_P1;HPM_P2
2022/07/07 00:01:26;;;;;;;2.10;1.90;;;14.10;99.90;;;;;;4970265;28;20208;-73
2022/07/07 00:03:53;;;;;;;2.20;1.73;;;14.20;99.90;;;;;;4970293;28;20802;-73
2022/07/07 00:06:19;;;;;;;2.03;1.80;;;14.20;99.90;;;;;;4970533;28;20521;-73
2022/07/07 00:08:46;;;;;;;2.23;2.03;;;14.20;99.90;;;;;;4955063;28;20428;-73
2022/07/07 00:11:13;;;;;;;5.53;1.90;;;14.10;99.90;;;;;;4969780;28;20267;-72
2022/07/07 00:13:39;;;;;;;3.10;1.80;;;14.20;99.90;;;;;;4970236;28;20419;-73
2022/07/07 00:16:04;;;;;;;2.60;2.40;;;14.20;99.90;;;;;;4972021;28;20507;-72
2022/07/07 00:18:30;;;;;;;3.33;2.30;;;14.20;99.90;;;;;;4970257;28;20184;-72
2022/07/07 00:20:55;;;;;;;1.33;1.23;;;14.20;99.90;;;;;;4969996;28;20239;-72
2022/07/07 00:23:21;;;;;;;1.83;1.50;;;14.30;99.90;;;;;;4970560;28;20219;-72
2022/07/07 00:25:46;;;;;;;2.67;2.00;;;14.30;99.90;;;;;;4970433;28;20211;-73
2022/07/07 00:28:12;;;;;;;2.30;2.20;;;14.20;99.90;;;;;;4970463;28;20208;-72
2022/07/07 00:30:37;;;;;;;2.10;2.00;;;14.20;99.90;;;;;;4970889;28;20179;-72
2022/07/07 00:33:03;;;;;;;1.90;1.80;;;14.20;99.90;;;;;;4970053;28;20669;-72
2022/07/07 00:35:29;;;;;;;6.13;2.17;;;14.30;99.90;;;;;;4954011;28;20210;-72
2022/07/07 00:37:55;;;;;;;5.57;2.20;;;14.20;99.90;;;;;;4971830;28;20187;-73
2022/07/07 00:40:21;;;;;;;3.27;1.90;;;14.20;99.90;;;;;;4970010;28;20184;-73
2022/07/07 00:42:46;;;;;;;2.20;1.83;;;14.20;99.90;;;;;;4970622;28;20458;-72
2022/07/07 00:45:12;;;;;;;2.93;2.40;;;14.20;99.90;;;;;;4970760;28;20192;-71
2022/07/07 00:47:40;;;;;;;4.77;2.10;;;14.20;99.90;;;;;;4969840;28;20669;-72
2022/07/07 00:50:06;;;;;;;6.00;2.40;;;14.20;99.90;;;;;;4954652;28;20554;-72
2022/07/07 00:52:32;;;;;;;2.63;1.97;;;14.20;99.90;;;;;;4969135;28;21047;-72
2022/07/07 00:55:00;;;;;;;4.53;1.83;;;14.30;99.90;;;;;;4969539;28;20419;-71
2022/07/07 00:57:26;;;;;;;2.60;2.17;;;14.30;99.90;;;;;;4970095;28;20430;-73
2022/07/07 00:59:57;;;;;;;5.93;2.27;;;14.30;99.90;;;;;;4971289;28;20426;-72
2022/07/07 02:33:00;;;;;;;2.10;1.80;;;14.30;99.90;;;;;;5075669;23;20506;-75
2022/07/07 02:35:25;;;;;;;6.20;2.13;;;14.30;99.90;;;;;;4969436;28;20450;-76
2022/07/07 02:37:51;;;;;;;3.70;2.00;;;14.40;99.90;;;;;;4967848;28;20675;-72
2022/07/07 02:40:16;;;;;;;2.77;2.57;;;14.30;99.90;;;;;;4974617;28;20251;-75
2022/07/07 02:42:42;;;;;;;3.70;2.40;;;14.30;99.90;;;;;;4974198;28;20202;-76
2022/07/07 02:45:08;;;;;;;12.53;2.90;;;14.30;99.90;;;;;;4974111;28;20180;-74
2022/07/07 02:47:33;;;;;;;2.53;2.33;;;14.30;99.90;;;;;;4973916;28;20208;-75
2022/07/07 02:49:59;;;;;;;3.83;1.97;;;14.20;99.90;;;;;;4974938;28;20669;-75
2022/07/07 02:52:24;;;;;;;3.73;2.70;;;14.30;99.90;;;;;;4974211;28;20215;-76
2022/07/07 02:54:50;;;;;;;6.63;2.83;;;14.30;99.90;;;;;;4974024;28;20188;-73
2022/07/07 02:57:15;;;;;;;2.47;2.27;;;14.30;99.90;;;;;;4974461;28;20180;-75
2022/07/07 02:59:41;;;;;;;6.57;2.43;;;14.30;99.90;;;;;;4974389;28;20730;-75
2022/07/07 03:02:06;;;;;;;2.90;2.23;;;14.30;99.90;;;;;;4973298;28;20203;-76
2022/07/07 03:04:32;;;;;;;3.33;2.20;;;14.30;99.90;;;;;;4974536;28;20231;-76
2022/07/07 03:06:57;;;;;;;5.23;2.50;;;14.30;99.90;;;;;;4973997;28;20282;-76
2022/07/07 03:09:23;;;;;;;3.53;2.50;;;14.30;99.90;;;;;;4973923;28;20594;-76
2022/07/07 03:11:48;;;;;;;4.20;3.37;;;14.40;99.90;;;;;;4973231;28;20210;-76
2022/07/07 03:14:14;;;;;;;2.97;2.70;;;14.30;99.90;;;;;;4974124;28;20180;-76
2022/07/07 03:16:40;;;;;;;2.90;2.60;;;14.40;99.90;;;;;;4973414;28;20250;-76
2022/07/07 03:19:05;;;;;;;4.00;2.37;;;14.40;99.90;;;;;;4971869;28;20198;-76
2022/07/07 03:21:31;;;;;;;9.37;2.53;;;14.40;99.90;;;;;;4972514;28;20192;-76
2022/07/07 03:23:56;;;;;;;2.27;2.07;;;14.40;99.90;;;;;;4974060;28;20187;-76
2022/07/07 03:26:22;;;;;;;1.93;1.77;;;14.50;99.90;;;;;;4974820;28;20211;-76
2022/07/07 03:28:47;;;;;;;2.97;1.63;;;14.50;99.90;;;;;;4974640;28;20184;-76
2022/07/07 03:31:13;;;;;;;2.47;1.60;;;14.60;99.90;;;;;;4973363;28;20216;-76
2022/07/07 03:33:38;;;;;;;1.83;1.73;;;14.70;99.90;;;;;;4974503;28;20267;-76
2022/07/07 03:36:04;;;;;;;6.90;2.63;;;14.70;99.90;;;;;;4975089;28;20176;-76
2022/07/07 03:38:29;;;;;;;3.00;1.50;;;14.80;99.90;;;;;;4974845;28;20183;-76
2022/07/07 03:40:55;;;;;;;5.43;1.60;;;14.80;99.90;;;;;;4972642;28;20223;-76
2022/07/07 03:43:20;;;;;;;4.40;1.77;;;14.90;99.90;;;;;;4974022;28;20641;-76
2022/07/07 03:45:46;;;;;;;2.00;1.83;;;14.90;99.90;;;;;;4973438;28;20613;-76
2022/07/07 03:48:11;;;;;;;3.23;1.90;;;14.90;99.90;;;;;;4973495;28;20689;-75
2022/07/07 03:50:37;;;;;;;3.00;2.17;;;14.90;99.90;;;;;;4973053;28;20172;-76
2022/07/07 03:53:02;;;;;;;3.13;2.23;;;15.00;99.90;;;;;;4973139;28;20238;-76
2022/07/07 03:55:28;;;;;;;2.60;1.87;;;15.00;99.90;;;;;;4973282;28;20259;-74
2022/07/07 03:57:54;;;;;;;6.60;1.80;;;15.00;99.90;;;;;;4972856;28;20222;-76
2022/07/07 04:00:19;;;;;;;4.40;2.47;;;15.10;99.90;;;;;;4973034;28;20180;-75
2022/07/07 04:02:45;;;;;;;3.00;2.20;;;15.20;99.90;;;;;;4972278;28;20278;-77
2022/07/07 04:05:10;;;;;;;3.50;2.47;;;15.20;99.90;;;;;;4972913;28;20246;-75
2022/07/07 04:07:36;;;;;;;3.17;2.00;;;15.20;99.90;;;;;;4973011;28;20658;-76
2022/07/07 04:10:03;;;;;;;3.67;1.90;;;15.30;99.90;;;;;;4972739;28;20172;-75
2022/07/07 04:12:29;;;;;;;3.07;1.57;;;15.30;99.90;;;;;;4972048;28;20192;-74
2022/07/07 04:14:55;;;;;;;1.60;1.50;;;15.40;99.90;;;;;;4972816;28;20586;-75
2022/07/07 04:17:21;;;;;;;1.57;1.20;;;15.50;99.90;;;;;;4972802;28;20175;-75
2022/07/07 04:19:46;;;;;;;1.73;1.17;;;15.50;99.90;;;;;;4972646;28;20429;-76
2022/07/07 04:22:12;;;;;;;3.10;1.20;;;15.60;99.90;;;;;;4972672;28;20205;-76
2022/07/07 04:24:37;;;;;;;3.63;1.40;;;15.70;99.90;;;;;;4972146;28;20578;-76
2022/07/07 04:27:04;;;;;;;3.70;0.97;;;15.70;99.90;;;;;;4972312;28;20211;-74
2022/07/07 04:29:30;;;;;;;2.23;1.50;;;15.80;99.90;;;;;;4972736;28;20194;-75
2022/07/07 04:31:56;;;;;;;3.90;1.37;;;15.90;99.90;;;;;;4970621;28;20450;-75
2022/07/07 04:34:22;;;;;;;1.80;1.20;;;15.90;99.90;;;;;;4971500;28;20179;-75
2022/07/07 04:36:48;;;;;;;4.10;1.20;;;15.90;99.90;;;;;;4972157;28;20181;-75
2022/07/07 04:39:13;;;;;;;3.30;1.37;;;16.00;99.90;;;;;;4972407;28;20506;-76
2022/07/07 04:41:39;;;;;;;2.20;1.40;;;16.00;99.90;;;;;;4971742;28;20593;-76
2022/07/07 04:44:05;;;;;;;3.23;1.03;;;16.00;99.90;;;;;;4972835;28;20267;-76
2022/07/07 04:46:31;;;;;;;1.70;1.20;;;16.10;99.90;;;;;;4971613;28;20680;-75
2022/07/07 04:48:56;;;;;;;1.93;1.37;;;16.20;99.90;;;;;;4972417;28;20412;-76
2022/07/07 04:51:23;;;;;;;6.63;0.97;;;16.20;99.90;;;;;;4971844;28;20288;-75
2022/07/07 04:53:49;;;;;;;1.10;1.00;;;16.20;99.90;;;;;;4972129;28;20183;-73
2022/07/07 04:56:15;;;;;;;2.23;1.13;;;16.20;99.90;;;;;;4971834;28;20886;-76
2022/07/07 04:58:41;;;;;;;1.67;1.57;;;16.20;99.90;;;;;;4972356;28;20447;-75
2022/07/07 05:01:08;;;;;;;2.00;1.30;;;16.20;99.90;;;;;;4971845;28;20445;-75
2022/07/07 05:03:33;;;;;;;1.40;1.30;;;16.20;99.90;;;;;;4972452;28;20415;-76
2022/07/07 05:05:59;;;;;;;1.40;1.03;;;16.20;99.90;;;;;;4971665;28;20547;-77
2022/07/07 05:08:25;;;;;;;1.33;1.03;;;16.40;99.90;;;;;;4972147;28;20418;-76
2022/07/07 05:10:51;;;;;;;1.37;0.83;;;16.50;99.90;;;;;;4975186;28;20168;-75
2022/07/07 05:13:16;;;;;;;2.83;1.30;;;16.60;99.90;;;;;;4976126;28;20411;-75
2022/07/07 05:15:42;;;;;;;1.47;1.10;;;16.80;99.90;;;;;;4975766;28;20172;-78
2022/07/07 05:18:07;;;;;;;2.63;1.47;;;17.00;99.90;;;;;;4975815;28;20682;-75
2022/07/07 05:20:33;;;;;;;1.33;1.03;;;17.20;99.90;;;;;;4974919;28;20188;-73
2022/07/07 05:22:58;;;;;;;2.60;1.10;;;17.40;99.90;;;;;;4975188;28;20199;-76
2022/07/07 05:25:24;;;;;;;1.63;1.20;;;17.90;99.90;;;;;;4974775;28;20211;-77
2022/07/07 05:27:50;;;;;;;1.27;1.17;;;18.50;99.90;;;;;;4971454;28;20314;-75
2022/07/07 05:30:16;;;;;;;1.47;1.30;;;18.90;99.90;;;;;;4952242;28;20232;-75
2022/07/07 05:32:41;;;;;;;2.20;0.90;;;19.40;99.90;;;;;;4947530;28;20209;-75
2022/07/07 05:35:07;;;;;;;2.20;1.40;;;19.90;99.90;;;;;;4961878;28;20430;-75
2022/07/07 05:37:33;;;;;;;4.43;1.27;;;20.40;99.90;;;;;;4954567;28;20177;-76
2022/07/07 05:39:58;;;;;;;5.70;1.67;;;20.70;99.90;;;;;;4954023;29;20964;-76
2022/07/07 05:42:24;;;;;;;1.10;1.10;;;21.00;99.90;;;;;;4954512;28;20207;-73
2022/07/07 05:44:50;;;;;;;1.90;1.10;;;21.30;99.90;;;;;;4955062;29;20192;-73
2022/07/07 05:47:15;;;;;;;1.40;1.00;;;21.60;99.90;;;;;;4955658;29;20204;-73
2022/07/07 05:49:41;;;;;;;2.00;1.10;;;21.60;99.90;;;;;;4954828;29;20993;-74
2022/07/07 05:52:07;;;;;;;2.30;0.93;;;21.90;99.90;;;;;;4954992;28;20192;-73
2022/07/07 05:54:32;;;;;;;1.30;1.10;;;22.00;99.90;;;;;;4955427;29;20672;-72
2022/07/07 05:56:58;;;;;;;1.23;0.97;;;22.10;99.90;;;;;;4955368;29;20275;-73
2022/07/07 05:59:23;;;;;;;8.23;1.20;;;22.20;99.90;;;;;;4955433;29;20188;-73
2022/07/07 06:01:49;;;;;;;2.20;1.20;;;22.30;99.90;;;;;;4954192;28;20215;-72
2022/07/07 06:04:15;;;;;;;1.67;1.00;;;22.40;99.90;;;;;;4955150;29;20178;-75
2022/07/07 06:06:40;;;;;;;5.70;1.10;;;22.80;99.90;;;;;;4955015;28;20452;-74
2022/07/07 06:09:06;;;;;;;2.90;0.90;;;23.10;99.90;;;;;;4955991;29;20188;-72
2022/07/07 06:11:32;;;;;;;1.20;0.87;;;23.30;99.90;;;;;;4953937;28;20200;-71
2022/07/07 06:13:57;;;;;;;4.07;0.93;;;23.30;99.90;;;;;;4955330;28;20666;-76
2022/07/07 06:16:38;;;;;;;1.53;0.97;;;23.20;99.90;;;;;;4955310;29;20530;-74
2022/07/07 06:19:08;;;;;;;2.20;1.43;;;22.80;99.90;;;;;;4955275;29;20602;-73
2022/07/07 06:21:34;;;;;;;1.73;1.30;;;22.60;99.90;;;;;;4952907;28;20516;-72
2022/07/07 06:23:59;;;;;;;2.10;1.23;;;22.40;99.90;;;;;;4954868;29;20557;-73
2022/07/07 06:26:25;;;;;;;2.77;1.33;;;22.60;99.90;;;;;;4954969;29;20274;-73
2022/07/07 06:28:51;;;;;;;3.70;1.37;;;22.80;99.90;;;;;;4954651;28;20239;-73
2022/07/07 06:31:16;;;;;;;1.77;1.20;;;22.70;99.90;;;;;;4954126;28;20313;-74
2022/07/07 06:33:42;;;;;;;3.30;0.97;;;22.80;99.90;;;;;;4954721;29;20203;-73
2022/07/07 06:36:08;;;;;;;6.27;2.30;;;22.80;99.90;;;;;;4954773;29;20177;-73
2022/07/07 06:38:33;;;;;;;10.67;3.17;;;23.10;99.90;;;;;;4954472;28;20181;-73
2022/07/07 06:41:00;;;;;;;3.60;2.13;;;23.30;99.90;;;;;;4953830;28;20601;-73
2022/07/07 06:43:26;;;;;;;5.07;1.40;;;23.50;99.90;;;;;;4954315;28;20260;-73
2022/07/07 06:45:51;;;;;;;3.50;1.40;;;23.50;99.90;;;;;;4955067;29;20424;-73
2022/07/07 06:48:17;;;;;;;1.07;1.00;;;23.10;99.90;;;;;;4954492;29;21059;-73
2022/07/07 06:50:44;;;;;;;1.57;1.47;;;23.30;99.90;;;;;;4953238;28;20235;-73
2022/07/07 06:53:09;;;;;;;2.87;1.47;;;23.60;99.90;;;;;;4954645;28;20599;-71
2022/07/07 06:55:35;;;;;;;1.27;1.17;;;23.30;99.90;;;;;;4954347;28;20495;-73
2022/07/07 06:58:02;;;;;;;4.53;1.63;;;22.80;99.90;;;;;;4954388;29;20188;-73
2022/07/07 07:00:28;;;;;;;2.93;1.47;;;22.60;99.90;;;;;;4953554;29;20176;-74
2022/07/07 07:02:54;;;;;;;2.07;1.50;;;22.60;99.90;;;;;;4953832;28;20444;-73
2022/07/07 07:05:20;;;;;;;3.77;1.60;;;22.50;99.90;;;;;;4954378;29;20809;-73
2022/07/07 07:07:45;;;;;;;2.60;1.80;;;22.40;99.90;;;;;;4953919;28;20216;-73
2022/07/07 07:10:11;;;;;;;2.70;1.43;;;22.30;99.90;;;;;;4953493;28;20252;-74
2022/07/07 07:12:37;;;;;;;4.13;1.77;;;22.20;99.90;;;;;;4953492;28;20724;-73
2022/07/07 07:15:03;;;;;;;1.53;1.30;;;22.00;99.90;;;;;;4954256;28;20177;-73
2022/07/07 07:17:28;;;;;;;1.77;1.27;;;22.00;99.90;;;;;;4953990;28;20184;-71
2022/07/07 07:19:54;;;;;;;3.13;1.40;;;22.00;99.90;;;;;;4953312;29;20550;-73
2022/07/07 07:22:19;;;;;;;3.63;1.40;;;21.90;99.90;;;;;;4953347;28;20240;-73
2022/07/07 07:24:45;;;;;;;8.00;1.47;;;21.90;99.90;;;;;;4953704;29;20279;-73
2022/07/07 07:27:10;;;;;;;4.80;1.50;;;21.90;99.90;;;;;;4953812;28;20316;-72
2022/07/07 07:29:36;;;;;;;3.20;1.23;;;21.90;99.90;;;;;;4953928;28;20212;-74
2022/07/07 07:32:02;;;;;;;5.33;1.43;;;22.00;99.90;;;;;;4951866;28;20311;-72
2022/07/07 07:34:27;;;;;;;1.23;1.20;;;21.80;99.90;;;;;;4953859;28;20199;-73
2022/07/07 07:36:53;;;;;;;2.90;1.63;;;21.80;99.90;;;;;;4953171;29;20697;-75
2022/07/07 07:39:18;;;;;;;3.50;1.20;;;21.90;99.90;;;;;;4953926;29;20194;-73
2022/07/07 07:41:43;;;;;;;1.93;1.37;;;22.00;99.90;;;;;;4952695;28;20196;-73
2022/07/07 07:44:10;;;;;;;2.63;1.43;;;21.90;99.90;;;;;;4953381;29;20192;-73
2022/07/07 07:46:35;;;;;;;3.90;1.27;;;21.80;99.90;;;;;;4953317;29;20201;-74
2022/07/07 07:49:05;;;;;;;3.13;2.00;;;21.80;99.90;;;;;;4954065;29;20975;-72
2022/07/07 07:51:32;;;;;;;4.07;1.53;;;21.60;99.90;;;;;;4953071;28;20185;-74
2022/07/07 07:53:57;;;;;;;2.43;1.70;;;21.40;99.90;;;;;;4953397;29;20408;-73
2022/07/07 07:56:23;;;;;;;1.50;1.40;;;21.30;99.90;;;;;;4953435;29;20483;-75
2022/07/07 07:58:48;;;;;;;3.17;1.20;;;21.20;99.90;;;;;;4952548;28;20653;-72
2022/07/07 08:01:14;;;;;;;3.10;1.63;;;21.10;99.90;;;;;;4952650;28;20193;-73
2022/07/07 08:03:41;;;;;;;2.83;1.83;;;21.00;99.90;;;;;;4953171;29;20173;-75
2022/07/07 08:06:06;;;;;;;1.93;1.73;;;20.80;99.90;;;;;;4953141;29;20169;-76
2022/07/07 08:08:32;;;;;;;2.73;1.37;;;20.70;99.90;;;;;;4952391;29;20526;-74
2022/07/07 08:10:58;;;;;;;3.80;1.47;;;20.60;99.90;;;;;;4952547;28;20235;-76
2022/07/07 08:13:23;;;;;;;8.03;2.17;;;20.60;99.90;;;;;;4952979;28;20173;-76
2022/07/07 08:15:49;;;;;;;2.03;1.93;;;20.60;99.90;;;;;;4952884;28;20177;-73
2022/07/07 08:18:15;;;;;;;3.90;1.87;;;20.60;99.90;;;;;;4952318;29;20208;-75
2022/07/07 08:20:40;;;;;;;2.17;1.93;;;20.50;99.90;;;;;;4952200;28;20184;-76
2022/07/07 08:23:06;;;;;;;2.50;2.30;;;20.50;99.90;;;;;;4952963;28;20173;-75
2022/07/07 08:25:33;;;;;;;9.50;1.80;;;20.60;99.90;;;;;;4952847;29;20523;-74
2022/07/07 08:27:59;;;;;;;2.37;1.90;;;20.80;99.90;;;;;;4951957;29;20208;-75
2022/07/07 08:30:25;;;;;;;3.77;2.17;;;21.20;99.90;;;;;;4952849;28;20431;-75
2022/07/07 08:32:51;;;;;;;2.77;2.40;;;21.30;99.90;;;;;;4951972;28;20542;-75
2022/07/07 08:35:16;;;;;;;2.37;2.27;;;21.40;99.90;;;;;;4952964;28;20180;-75
2022/07/07 08:37:42;;;;;;;7.73;2.37;;;21.30;99.90;;;;;;4952013;28;20192;-75
2022/07/07 08:40:09;;;;;;;3.03;2.10;;;21.40;99.90;;;;;;4952340;28;20267;-74
2022/07/07 08:42:34;;;;;;;3.63;2.07;;;21.70;99.90;;;;;;4951610;28;20531;-75
2022/07/07 08:45:00;;;;;;;2.80;2.20;;;22.10;99.90;;;;;;4952289;29;21005;-73
2022/07/07 08:47:26;;;;;;;4.77;2.27;;;22.20;99.90;;;;;;4952553;28;20639;-73
2022/07/07 08:49:51;;;;;;;3.00;2.70;;;22.40;99.90;;;;;;4951949;28;20280;-73
2022/07/07 08:52:19;;;;;;;6.30;2.23;;;22.80;99.90;;;;;;4951988;28;20554;-73
2022/07/07 08:54:46;;;;;;;4.57;2.30;;;23.60;99.90;;;;;;4952573;28;20216;-73
2022/07/07 08:57:11;;;;;;;6.57;2.90;;;24.00;99.90;;;;;;4952353;28;20412;-73
2022/07/07 08:59:37;;;;;;;3.43;2.73;;;24.30;99.90;;;;;;4951834;28;20944;-73
2022/07/07 09:02:03;;;;;;;7.00;3.23;;;24.30;99.90;;;;;;4951768;28;20330;-74
2022/07/07 09:04:29;;;;;;;5.37;3.13;;;24.20;99.90;;;;;;4952517;29;20566;-72
2022/07/07 09:07:05;;;;;;;2.53;2.33;;;24.30;99.90;;;;;;4951814;28;20460;-73
2022/07/07 09:09:48;;;;;;;5.20;2.50;;;24.70;99.90;;;;;;4952531;29;20175;-73
2022/07/07 09:12:15;;;;;;;1.83;1.43;;;25.00;99.90;;;;;;4951633;28;20432;-73
2022/07/07 09:14:44;;;;;;;1.83;1.57;;;25.10;99.90;;;;;;4952366;29;20909;-73
2022/07/07 09:17:36;;;;;;;2.30;1.70;;;24.50;99.90;;;;;;4952140;28;20408;-72
2022/07/07 09:20:07;;;;;;;1.30;0.93;;;23.70;99.90;;;;;;4950188;28;20439;-73
2022/07/07 09:22:55;;;;;;;1.83;0.97;;;23.40;99.90;;;;;;4950827;28;20459;-71
2022/07/07 09:25:23;;;;;;;2.50;1.23;;;23.10;99.90;;;;;;4952343;28;20416;-73
2022/07/07 09:28:04;;;;;;;7.67;1.43;;;22.80;99.90;;;;;;4951881;28;20471;-70
2022/07/07 09:30:40;;;;;;;1.80;1.70;;;22.50;99.90;;;;;;4951915;28;20507;-72
2022/07/07 09:33:06;;;;;;;3.97;1.33;;;22.30;99.90;;;;;;4952159;28;20427;-73
2022/07/07 09:38:22;;;;;;;1.97;1.77;;;21.90;99.90;;;;;;4952345;29;20435;-73
2022/07/07 09:41:05;;;;;;;1.27;1.17;;;21.60;99.90;;;;;;4951593;28;20456;-74
2022/07/07 09:43:33;;;;;;;4.40;1.63;;;21.40;99.90;;;;;;4952287;28;20404;-72
2022/07/07 09:46:06;;;;;;;4.27;1.70;;;21.10;99.90;;;;;;4952070;28;20420;-73
2022/07/07 09:48:32;;;;;;;3.67;2.00;;;20.90;99.90;;;;;;4950160;29;20456;-73
2022/07/07 09:51:14;;;;;;;4.17;1.97;;;20.80;99.90;;;;;;4951363;28;20448;-72
2022/07/07 09:53:58;;;;;;;3.53;2.80;;;20.50;99.90;;;;;;4952022;28;20424;-77
2022/07/07 09:56:26;;;;;;;1.60;1.50;;;20.40;99.90;;;;;;4954256;28;20419;-75
2022/07/07 09:58:52;;;;;;;2.30;1.60;;;20.60;99.90;;;;;;4955412;29;20420;-76
2022/07/07 10:01:24;;;;;;;5.07;2.37;;;20.80;99.90;;;;;;4954672;28;20438;-76
2022/07/07 10:03:51;;;;;;;4.00;2.00;;;21.00;99.90;;;;;;4955627;28;20499;-74
2022/07/07 10:06:17;;;;;;;5.93;2.27;;;21.20;99.90;;;;;;4955215;28;20423;-77
2022/07/07 10:08:44;;;;;;;1.87;1.77;;;21.30;99.90;;;;;;4955216;28;20736;-76
2022/07/07 10:11:12;;;;;;;5.10;2.00;;;21.30;99.90;;;;;;4954167;28;20284;-75
2022/07/07 10:13:40;;;;;;;2.70;2.50;;;21.30;99.90;;;;;;4955376;29;20416;-75
2022/07/07 10:16:06;;;;;;;5.10;1.87;;;21.50;99.90;;;;;;4970242;28;20940;-76
2022/07/07 10:18:32;;;;;;;3.40;1.53;;;21.60;99.90;;;;;;4954992;29;20418;-75
2022/07/07 10:20:58;;;;;;;3.73;2.97;;;21.90;99.90;;;;;;4954720;28;20764;-77
2022/07/07 10:23:24;;;;;;;1.80;1.70;;;22.40;99.90;;;;;;4954776;29;20424;-75
2022/07/07 10:26:03;;;;;;;3.10;1.87;;;22.90;99.90;;;;;;4954889;29;20188;-75
2022/07/07 10:28:50;;;;;;;2.50;2.00;;;23.30;99.90;;;;;;4954948;29;20283;-75
2022/07/07 10:31:24;;;;;;;2.43;1.63;;;23.20;99.90;;;;;;4954234;28;20583;-75
2022/07/07 10:34:03;;;;;;;3.40;1.60;;;22.80;99.90;;;;;;4954793;28;20413;-74
2022/07/07 10:36:50;;;;;;;2.60;1.80;;;22.50;99.90;;;;;;4954124;29;20458;-75
2022/07/07 10:39:27;;;;;;;4.47;1.93;;;22.20;99.90;;;;;;4955056;28;20432;-75
2022/07/07 10:41:59;;;;;;;5.50;2.00;;;22.10;99.90;;;;;;4954028;28;20816;-75
2022/07/07 10:44:26;;;;;;;3.80;1.53;;;22.40;99.90;;;;;;4954266;28;20514;-73
2022/07/07 10:47:11;;;;;;;2.63;2.43;;;22.50;99.90;;;;;;4954138;28;20910;-73
2022/07/07 10:49:41;;;;;;;3.03;2.80;;;22.40;99.90;;;;;;4953572;29;20417;-76
2022/07/07 10:52:18;;;;;;;3.27;1.47;;;22.30;99.90;;;;;;4954733;28;20590;-76
2022/07/07 10:54:48;;;;;;;5.30;1.80;;;22.30;99.90;;;;;;4954536;28;20479;-72
2022/07/07 10:57:16;;;;;;;1.50;1.37;;;22.00;99.90;;;;;;4955766;28;20416;-73
2022/07/07 10:59:58;;;;;;;1.83;1.37;;;21.90;99.90;;;;;;4954249;28;20424;-72
2022/07/07 11:02:48;;;;;;;2.07;1.10;;;21.80;99.90;;;;;;4953704;28;20792;-73
2022/07/07 11:05:13;;;;;;;2.57;1.50;;;21.60;99.90;;;;;;4954510;28;20439;-73
2022/07/07 11:07:40;;;;;;;1.93;1.33;;;21.50;99.90;;;;;;4964161;28;21066;-74
2022/07/07 11:10:11;;;;;;;1.27;1.10;;;21.10;99.90;;;;;;4957805;28;20259;-72
2022/07/07 11:12:40;;;;;;;5.77;1.63;;;21.00;99.90;;;;;;4950673;28;20996;-73
2022/07/07 11:15:35;;;;;;;8.13;1.67;;;20.80;99.90;;;;;;4954217;28;20426;-73
2022/07/07 11:18:00;;;;;;;2.30;2.20;;;20.80;99.90;;;;;;4948107;29;21275;-73
2022/07/07 11:20:29;;;;;;;1.57;1.20;;;20.90;99.90;;;;;;4953322;28;20416;-72
2022/07/07 11:23:09;;;;;;;2.67;1.40;;;20.80;99.90;;;;;;4953177;28;20570;-73
2022/07/07 11:25:34;;;;;;;5.90;1.80;;;20.70;99.90;;;;;;4953994;28;20420;-72
2022/07/07 11:28:00;;;;;;;3.63;1.40;;;20.70;99.90;;;;;;4953391;28;20464;-73
2022/07/07 11:30:28;;;;;;;5.37;2.13;;;20.70;99.90;;;;;;4953086;28;20177;-72
2022/07/07 11:32:57;;;;;;;7.00;1.53;;;20.80;99.90;;;;;;4952877;28;20484;-73
2022/07/07 11:35:22;;;;;;;3.17;2.00;;;20.80;99.90;;;;;;4953849;28;20503;-73
2022/07/07 11:37:49;;;;;;;3.87;1.73;;;20.90;99.90;;;;;;4952724;28;20556;-73
2022/07/07 11:40:14;;;;;;;4.37;1.63;;;20.80;99.90;;;;;;4953751;28;20613;-73
2022/07/07 11:42:43;;;;;;;4.00;1.57;;;20.60;99.90;;;;;;4952315;28;20456;-74
2022/07/07 11:45:19;;;;;;;3.53;1.90;;;20.70;99.90;;;;;;4953425;28;20580;-70
2022/07/07 11:47:45;;;;;;;4.30;1.97;;;20.50;99.90;;;;;;4952199;28;20881;-74
2022/07/07 11:50:11;;;;;;;9.20;2.13;;;20.50;99.90;;;;;;4953235;28;20409;-73
2022/07/07 11:52:37;;;;;;;4.23;1.90;;;20.60;99.90;;;;;;4953014;28;20967;-72
2022/07/07 11:55:04;;;;;;;3.97;1.67;;;20.60;99.90;;;;;;4953269;28;20183;-73
2022/07/07 11:57:35;;;;;;;2.30;2.17;;;20.70;99.90;;;;;;4952991;28;20179;-71
2022/07/07 12:00:09;;;;;;;2.87;2.00;;;20.80;99.90;;;;;;4952871;28;20484;-74
2022/07/07 12:02:34;;;;;;;1.40;1.30;;;20.90;99.90;;;;;;4951895;28;20536;-74
2022/07/07 12:05:00;;;;;;;5.50;1.77;;;20.80;99.90;;;;;;4952739;28;20507;-72
2022/07/07 12:07:25;;;;;;;2.90;2.13;;;20.80;99.90;;;;;;4953866;28;20205;-71
2022/07/07 12:09:51;;;;;;;5.50;1.70;;;20.80;99.90;;;;;;4953521;28;20176;-74
2022/07/07 12:12:18;;;;;;;3.10;1.40;;;20.80;99.90;;;;;;4954167;28;20780;-74
2022/07/07 12:14:44;;;;;;;4.70;1.53;;;20.90;99.90;;;;;;4946072;28;20184;-73
2022/07/07 12:17:10;;;;;;;3.17;1.80;;;21.00;99.90;;;;;;4952419;28;20436;-73
2022/07/07 12:19:46;;;;;;;4.63;2.60;;;21.10;99.90;;;;;;4953623;28;20432;-74
2022/07/07 12:22:12;;;;;;;10.13;2.80;;;21.20;99.90;;;;;;4951983;28;20200;-73
2022/07/07 12:24:37;;;;;;;4.10;1.63;;;21.20;99.90;;;;;;4953960;29;20428;-75
2022/07/07 12:27:03;;;;;;;6.00;2.10;;;21.00;99.90;;;;;;4954194;28;20212;-75
2022/07/07 12:29:29;;;;;;;4.00;1.97;;;20.90;99.90;;;;;;4948847;29;20588;-73
2022/07/07 12:31:55;;;;;;;4.33;2.20;;;20.90;99.90;;;;;;4952042;28;20475;-75
2022/07/07 12:34:22;;;;;;;3.37;2.20;;;20.80;99.90;;;;;;4950729;28;20558;-75
2022/07/07 12:36:49;;;;;;;2.50;1.97;;;20.70;99.90;;;;;;4960934;28;20188;-76
2022/07/07 12:39:14;;;;;;;2.00;1.90;;;20.80;99.90;;;;;;4954688;28;20536;-75
2022/07/07 12:41:41;;;;;;;2.63;2.00;;;21.00;99.90;;;;;;4954085;28;20444;-73
2022/07/07 12:44:17;;;;;;;2.07;1.87;;;21.00;99.90;;;;;;4953825;28;20644;-74
2022/07/07 12:46:43;;;;;;;3.67;1.97;;;20.90;99.90;;;;;;4953558;28;20838;-75
2022/07/07 12:49:09;;;;;;;4.43;2.20;;;20.70;99.90;;;;;;4953568;29;20423;-73
2022/07/07 12:51:37;;;;;;;2.23;2.03;;;20.60;99.90;;;;;;4934282;29;20798;-74
2022/07/07 12:54:04;;;;;;;2.10;2.00;;;20.50;99.90;;;;;;4957471;28;20416;-74
2022/07/07 12:56:35;;;;;;;3.30;2.40;;;20.50;99.90;;;;;;4953947;28;20412;-73
2022/07/07 12:59:13;;;;;;;2.80;2.03;;;20.50;99.90;;;;;;4953142;28;20413;-74
2022/07/07 13:01:38;;;;;;;6.17;2.57;;;20.50;99.90;;;;;;4949433;28;20513;-76
2022/07/07 13:04:05;;;;;;;3.23;2.40;;;20.60;99.90;;;;;;4973635;28;20443;-75
2022/07/07 13:06:30;;;;;;;3.83;2.00;;;20.60;99.90;;;;;;4964905;28;20172;-74
2022/07/07 13:08:56;;;;;;;2.00;1.83;;;20.70;99.90;;;;;;4959288;28;20792;-75
2022/07/07 13:11:22;;;;;;;1.80;1.70;;;20.80;99.90;;;;;;4953750;28;20301;-74
2022/07/07 13:13:47;;;;;;;2.77;1.93;;;20.90;99.90;;;;;;4953018;28;20172;-74
2022/07/07 13:16:13;;;;;;;2.83;1.80;;;20.80;99.90;;;;;;4951863;28;20206;-74
2022/07/07 13:18:39;;;;;;;2.50;1.40;;;20.90;99.90;;;;;;4957537;28;20188;-74
2022/07/07 13:21:06;;;;;;;4.77;1.70;;;21.00;99.90;;;;;;4954817;28;20605;-75
2022/07/07 13:23:33;;;;;;;5.60;2.70;;;21.20;99.90;;;;;;4959024;28;20425;-74
2022/07/07 13:26:01;;;;;;;3.47;2.47;;;21.00;99.90;;;;;;4952068;28;20420;-75
2022/07/07 13:28:28;;;;;;;2.63;1.80;;;21.00;99.90;;;;;;4960570;28;20467;-74
2022/07/07 13:30:55;;;;;;;4.20;1.80;;;21.00;99.90;;;;;;4964478;28;20519;-74
2022/07/07 13:33:20;;;;;;;1.90;1.80;;;21.20;99.90;;;;;;4957959;28;20423;-73
2022/07/07 13:35:46;;;;;;;2.80;1.70;;;21.30;99.90;;;;;;4956346;28;20791;-73
2022/07/07 13:38:12;;;;;;;2.33;1.70;;;21.30;99.90;;;;;;4967582;28;20187;-73
2022/07/07 13:40:39;;;;;;;2.20;2.00;;;21.40;99.90;;;;;;4969074;28;20240;-73
2022/07/07 13:43:05;;;;;;;2.00;1.90;;;21.50;99.90;;;;;;4955004;28;20434;-73
2022/07/07 13:45:31;;;;;;;4.27;2.10;;;21.60;99.90;;;;;;4955494;28;20515;-71
2022/07/07 13:47:57;;;;;;;2.03;1.83;;;21.60;99.90;;;;;;4955382;28;20503;-73
2022/07/07 13:50:23;;;;;;;4.27;2.13;;;21.60;99.90;;;;;;4955798;29;20466;-73
2022/07/07 13:52:49;;;;;;;4.60;1.60;;;21.50;99.90;;;;;;4954968;28;20205;-75
2022/07/07 13:55:15;;;;;;;1.63;1.40;;;21.30;99.90;;;;;;4954967;28;20426;-77
2022/07/07 13:57:41;;;;;;;1.93;1.53;;;21.20;99.90;;;;;;4960274;28;20420;-82
2022/07/07 14:00:08;;;;;;;1.33;1.23;;;20.60;99.90;;;;;;4956840;28;20192;-76
2022/07/07 14:02:34;;;;;;;2.20;1.27;;;20.40;99.90;;;;;;4956435;28;20538;-76
2022/07/07 14:04:59;;;;;;;3.33;1.63;;;20.20;99.90;;;;;;4957703;28;20514;-80
2022/07/07 14:07:25;;;;;;;5.60;1.27;;;19.90;99.90;;;;;;4974614;28;20258;-78
2022/07/07 14:09:50;;;;;;;5.87;1.30;;;19.70;99.90;;;;;;4960236;28;20240;-73
2022/07/07 14:12:16;;;;;;;1.73;1.03;;;19.50;99.90;;;;;;4954552;28;20200;-74
2022/07/07 14:14:42;;;;;;;10.70;1.23;;;19.30;99.90;;;;;;4955627;28;20673;-74
2022/07/07 14:17:07;;;;;;;0.90;0.90;;;19.20;99.90;;;;;;4954820;28;20189;-73
2022/07/07 14:19:33;;;;;;;2.50;1.40;;;19.20;99.90;;;;;;4954000;29;20173;-73